createdAt,value
2023-02-09T00:01:26.172Z,102338.50
2023-02-09T00:03:54.321Z,102348.31
2023-02-09T00:06:26.256Z,102341.72
2023-02-09T00:08:54.638Z,102338.72
2023-02-09T00:11:44.283Z,102330.53
2023-02-09T00:14:11.597Z,102331.69
2023-02-09T00:16:39.266Z,102336.84
2023-02-09T00:19:06.962Z,102330.97
2023-02-09T00:21:37.366Z,102330.97
2023-02-09T00:24:06.234Z,102330.38
2023-02-09T00:26:34.274Z,102324.88
2023-02-09T00:29:01.889Z,102327.22
2023-02-09T00:31:29.993Z,102320.06
2023-02-09T00:33:57.798Z,102314.19
2023-02-09T00:36:25.424Z,102312.25
2023-02-09T00:38:54.447Z,102309.81
2023-02-09T00:41:42.795Z,102306.47
2023-02-09T00:44:10.770Z,102313.00
2023-02-09T00:46:39.932Z,102307.66
2023-02-09T00:49:07.713Z,102301.31
2023-02-09T00:51:35.394Z,102315.56
2023-02-09T00:54:04.648Z,102315.78
2023-02-09T00:56:32.285Z,102308.50
2023-02-09T00:58:59.908Z,102311.09
2023-02-09T01:01:27.641Z,102308.81
2023-02-09T01:03:55.338Z,102308.91
2023-02-09T01:06:23.112Z,102300.38
2023-02-09T01:08:51.177Z,102307.69
2023-02-09T01:11:20.232Z,102307.59
2023-02-09T01:13:47.968Z,102304.84
2023-02-09T01:16:18.590Z,102300.34
2023-02-09T01:18:46.453Z,102307.81
2023-02-09T01:21:15.852Z,102301.25
2023-02-09T01:23:43.736Z,102312.66
2023-02-09T01:26:12.855Z,102296.41
2023-02-09T01:28:42.248Z,102298.41
2023-02-09T01:31:21.212Z,102291.16
2023-02-09T01:33:49.286Z,102302.94
2023-02-09T01:36:17.096Z,102295.13
2023-02-09T01:38:44.752Z,102288.22
2023-02-09T01:41:12.917Z,102289.84
2023-02-09T01:43:59.466Z,102285.59
2023-02-09T01:46:29.236Z,102287.38
2023-02-09T01:49:03.776Z,102279.41
2023-02-09T01:51:34.162Z,102277.25
2023-02-09T01:54:06.175Z,102278.94
2023-02-09T01:56:34.239Z,102271.53
2023-02-09T01:59:03.217Z,102270.94
2023-02-09T02:01:31.267Z,102273.09
2023-02-09T02:03:58.916Z,102262.56
2023-02-09T02:06:27.059Z,102270.06
2023-02-09T02:08:59.763Z,102260.50
2023-02-09T02:11:29.782Z,102255.03
2023-02-09T02:13:57.926Z,102251.16
2023-02-09T02:16:54.774Z,102256.56
2023-02-09T02:19:48.108Z,102250.78
2023-02-09T02:22:48.055Z,102252.22
2023-02-09T02:25:54.040Z,102241.31
2023-02-09T02:28:41.566Z,102242.28
2023-02-09T02:31:47.958Z,102236.25
2023-02-09T02:34:21.081Z,102238.38
2023-02-09T02:36:59.220Z,102236.81
2023-02-09T02:39:32.517Z,102237.88
2023-02-09T02:42:21.210Z,102236.16
2023-02-09T02:45:02.851Z,102232.06
2023-02-09T02:47:35.685Z,102234.94
2023-02-09T02:50:09.318Z,102227.66
2023-02-09T02:52:39.138Z,102231.22
2023-02-09T02:55:10.807Z,102227.69
2023-02-09T02:57:44.295Z,102222.53
2023-02-09T03:00:15.465Z,102222.53
2023-02-09T03:02:48.064Z,102225.78
2023-02-09T03:05:17.529Z,102220.56
2023-02-09T03:07:45.438Z,102215.94
2023-02-09T03:10:28.470Z,102218.03
2023-02-09T03:13:07.874Z,102214.50
2023-02-09T03:15:49.563Z,102217.88
2023-02-09T03:18:27.203Z,102215.16
2023-02-09T03:21:00.072Z,102219.53
2023-02-09T03:23:33.915Z,102232.56
2023-02-09T03:26:08.761Z,102225.22
2023-02-09T03:28:40.534Z,102218.47
2023-02-09T03:31:10.163Z,102216.63
2023-02-09T03:33:40.419Z,102211.41
2023-02-09T03:36:13.653Z,102214.19
2023-02-09T03:38:41.229Z,102211.59
2023-02-09T03:41:08.883Z,102221.97
2023-02-09T03:43:54.276Z,102229.94
2023-02-09T03:46:22.125Z,102227.69
2023-02-09T03:48:51.060Z,102227.81
2023-02-09T03:51:18.943Z,102226.94
2023-02-09T03:53:47.244Z,102233.34
2023-02-09T03:56:14.901Z,102229.78
2023-02-09T03:58:42.582Z,102231.50
2023-02-09T04:01:12.063Z,102229.06
2023-02-09T04:03:40.701Z,102238.81
2023-02-09T04:06:10.981Z,102238.75
2023-02-09T04:08:38.831Z,102240.41
2023-02-09T04:11:06.553Z,102242.88
2023-02-09T04:13:34.298Z,102240.28
2023-02-09T04:16:01.956Z,102232.34
2023-02-09T04:18:29.683Z,102236.47
2023-02-09T04:20:57.353Z,102243.56
2023-02-09T04:23:26.366Z,102246.25
2023-02-09T04:25:54.010Z,102250.53
2023-02-09T04:28:21.773Z,102248.88
2023-02-09T04:30:52.987Z,102252.34
2023-02-09T04:33:20.999Z,102254.31
2023-02-09T04:35:48.966Z,102250.63
2023-02-09T04:38:19.341Z,102250.63
2023-02-09T04:40:48.556Z,102266.41
2023-02-09T04:43:16.252Z,102258.03
2023-02-09T04:45:44.423Z,102251.16
2023-02-09T04:48:15.153Z,102253.56
2023-02-09T04:50:43.637Z,102253.56
2023-02-09T04:53:11.686Z,102256.22
2023-02-09T04:55:39.609Z,102259.13
2023-02-09T04:58:26.104Z,102265.38
2023-02-09T05:00:55.900Z,102266.28
2023-02-09T05:03:24.731Z,102272.06
2023-02-09T05:05:55.720Z,102267.66
2023-02-09T05:08:23.837Z,102272.06
2023-02-09T05:10:52.101Z,102271.25
2023-02-09T05:13:22.230Z,102271.25
2023-02-09T05:15:49.919Z,102270.50
2023-02-09T05:18:18.129Z,102269.69
2023-02-09T05:20:46.998Z,102271.97
2023-02-09T05:23:15.558Z,102260.72
2023-02-09T05:25:43.240Z,102260.56
2023-02-09T05:28:10.996Z,102275.56
2023-02-09T05:30:40.279Z,102280.72
2023-02-09T05:33:08.052Z,102271.44
2023-02-09T05:35:35.800Z,102274.13
2023-02-09T05:38:04.615Z,102272.22
2023-02-09T05:40:32.376Z,102265.59
2023-02-09T05:43:00.287Z,102263.88
2023-02-09T05:45:28.056Z,102263.63
2023-02-09T05:47:57.082Z,102264.50
2023-02-09T05:50:24.823Z,102273.56
2023-02-09T05:52:52.448Z,102272.53
2023-02-09T05:55:20.286Z,102272.53
2023-02-09T05:57:48.067Z,102273.75
2023-02-09T06:00:16.742Z,102270.41
2023-02-09T06:02:44.544Z,102265.25
2023-02-09T06:05:13.564Z,102269.56
2023-02-09T06:07:41.176Z,102269.78
2023-02-09T06:10:09.342Z,102269.72
2023-02-09T06:12:37.015Z,102274.94
2023-02-09T06:15:05.433Z,102267.81
2023-02-09T06:17:33.160Z,102260.78
2023-02-09T06:20:00.909Z,102264.22
2023-02-09T06:22:31.731Z,102270.19
2023-02-09T06:24:59.530Z,102269.63
2023-02-09T06:27:27.245Z,102275.00
2023-02-09T06:29:54.935Z,102270.78
2023-02-09T06:32:22.610Z,102271.50
2023-02-09T06:34:50.411Z,102276.31
2023-02-09T06:37:18.070Z,102274.31
2023-02-09T06:39:47.122Z,102272.69
2023-02-09T06:42:14.806Z,102270.13
2023-02-09T06:44:42.458Z,102280.84
2023-02-09T06:47:10.220Z,102272.16
2023-02-09T06:49:37.983Z,102280.22
2023-02-09T06:52:06.249Z,102279.72
2023-02-09T06:54:33.905Z,102283.25
2023-02-09T06:57:02.909Z,102298.03
2023-02-09T06:59:30.572Z,102294.75
2023-02-09T07:01:58.310Z,102301.63
2023-02-09T07:04:26.243Z,102303.41
2023-02-09T07:06:53.879Z,102299.84
2023-02-09T07:09:21.529Z,102297.22
2023-02-09T07:11:49.254Z,102304.91
2023-02-09T07:14:18.224Z,102308.41
2023-02-09T07:16:45.849Z,102307.94
2023-02-09T07:19:13.941Z,102317.41
2023-02-09T07:21:41.677Z,102310.31
2023-02-09T07:24:09.302Z,102320.69
2023-02-09T07:26:37.017Z,102322.97
2023-02-09T07:29:04.678Z,102324.97
2023-02-09T07:31:34.198Z,102322.03
2023-02-09T07:34:02.781Z,102316.06
2023-02-09T07:36:30.438Z,102318.75
2023-02-09T07:38:59.480Z,102322.88
2023-02-09T07:41:28.615Z,102326.06
2023-02-09T07:43:57.356Z,102317.50
2023-02-09T07:46:25.529Z,102317.56
2023-02-09T07:48:54.694Z,102329.78
2023-02-09T07:51:25.363Z,102317.78
2023-02-09T07:53:53.827Z,102327.28
2023-02-09T07:56:21.596Z,102329.72
2023-02-09T07:58:49.558Z,102323.78
2023-02-09T08:01:17.763Z,102327.19
2023-02-09T08:03:47.079Z,102331.22
2023-02-09T08:06:21.815Z,102327.59
2023-02-09T08:08:52.281Z,102325.09
2023-02-09T08:11:22.747Z,102333.34
2023-02-09T08:13:51.974Z,102341.00
2023-02-09T08:16:25.704Z,102344.13
2023-02-09T08:18:56.704Z,102347.53
2023-02-09T08:21:27.288Z,102345.50
2023-02-09T08:23:58.771Z,102347.81
2023-02-09T08:26:26.935Z,102344.66
2023-02-09T08:28:55.203Z,102342.69
2023-02-09T08:31:23.074Z,102340.94
2023-02-09T08:33:52.605Z,102337.56
2023-02-09T08:36:21.054Z,102343.78
2023-02-09T08:38:50.265Z,102340.94
2023-02-09T08:41:18.659Z,102355.50
2023-02-09T08:43:48.942Z,102352.66
2023-02-09T08:46:16.996Z,102345.63
2023-02-09T08:48:47.094Z,102351.38
2023-02-09T08:51:16.391Z,102352.03
2023-02-09T08:53:46.113Z,102355.44
2023-02-09T08:56:15.154Z,102361.75
2023-02-09T08:58:42.832Z,102361.81
2023-02-09T09:01:10.531Z,102353.31
2023-02-09T09:03:38.315Z,102353.31
2023-02-09T09:06:07.869Z,102357.34
2023-02-09T09:08:37.683Z,102353.41
2023-02-09T09:11:06.807Z,102360.97
2023-02-09T09:13:35.909Z,102357.06
2023-02-09T09:16:05.211Z,102361.97
2023-02-09T09:18:33.046Z,102355.50
2023-02-09T09:21:00.841Z,102357.19
2023-02-09T09:23:28.537Z,102355.19
2023-02-09T09:26:01.459Z,102358.59
2023-02-09T09:28:29.238Z,102357.06
2023-02-09T09:30:59.894Z,102356.06
2023-02-09T09:33:27.760Z,102360.47
2023-02-09T09:35:55.489Z,102355.31
2023-02-09T09:38:23.149Z,102352.13
2023-02-09T09:40:50.832Z,102350.34
2023-02-09T09:43:24.925Z,102340.97
2023-02-09T09:45:52.802Z,102340.13
2023-02-09T09:48:25.332Z,102348.91
2023-02-09T09:50:56.557Z,102340.84
2023-02-09T09:53:33.333Z,102338.41
2023-02-09T09:56:05.158Z,102335.91
2023-02-09T09:58:34.256Z,102343.19
2023-02-09T10:01:02.425Z,102342.91
2023-02-09T10:03:31.525Z,102341.91
2023-02-09T10:06:04.098Z,102339.97
2023-02-09T10:08:35.925Z,102337.84
2023-02-09T10:11:08.049Z,102349.94
2023-02-09T10:13:39.607Z,102346.81
2023-02-09T10:16:17.063Z,102340.53
2023-02-09T10:18:46.801Z,102340.28
2023-02-09T10:21:16.593Z,102339.22
2023-02-09T10:23:46.526Z,102334.47
2023-02-09T10:26:32.789Z,102333.72
2023-02-09T10:29:08.112Z,102324.44
2023-02-09T10:31:39.395Z,102326.69
2023-02-09T10:34:14.832Z,102319.91
2023-02-09T10:36:49.844Z,102309.78
2023-02-09T10:39:20.513Z,102311.66
2023-02-09T10:41:51.233Z,102303.94
2023-02-09T10:44:23.481Z,102315.75
2023-02-09T10:47:08.612Z,102317.13
2023-02-09T10:49:39.905Z,102309.31
2023-02-09T10:52:15.189Z,102296.41
2023-02-09T10:54:44.558Z,102303.59
2023-02-09T10:57:24.353Z,102307.19
2023-02-09T10:59:53.290Z,102322.31
2023-02-09T11:02:35.959Z,102312.41
2023-02-09T11:05:25.425Z,102312.81
2023-02-09T11:07:57.430Z,102302.63
2023-02-09T11:10:27.009Z,102304.41
2023-02-09T11:12:54.616Z,102291.03
2023-02-09T11:15:27.123Z,102299.78
2023-02-09T11:18:03.014Z,102299.44
2023-02-09T11:20:36.577Z,102294.50
2023-02-09T11:23:26.032Z,102290.00
2023-02-09T11:26:01.112Z,102284.06
2023-02-09T11:28:51.021Z,102291.06
2023-02-09T11:31:32.399Z,102298.63
2023-02-09T11:34:13.154Z,102288.47
2023-02-09T11:36:49.728Z,102297.47
2023-02-09T11:39:25.859Z,102294.44
2023-02-09T11:42:18.172Z,102281.03
2023-02-09T11:44:52.730Z,102286.31
2023-02-09T11:47:27.105Z,102285.47
2023-02-09T11:49:57.555Z,102287.56
2023-02-09T11:52:32.693Z,102285.91
2023-02-09T11:55:03.646Z,102285.81
2023-02-09T11:57:37.083Z,102282.25
2023-02-09T12:00:07.930Z,102275.31
2023-02-09T12:02:47.652Z,102274.09
2023-02-09T12:05:19.651Z,102264.19
2023-02-09T12:08:13.689Z,102275.09
2023-02-09T12:10:48.062Z,102280.59
2023-02-09T12:13:31.344Z,102271.00
2023-02-09T12:16:02.976Z,102271.00
2023-02-09T12:18:33.176Z,102286.97
2023-02-09T12:21:02.352Z,102288.25
2023-02-09T12:23:34.036Z,102275.84
2023-02-09T12:26:03.073Z,102280.13
2023-02-09T12:28:42.284Z,102281.41
2023-02-09T12:31:13.865Z,102276.13
2023-02-09T12:34:10.608Z,102259.81
2023-02-09T12:36:38.404Z,102259.34
2023-02-09T12:39:25.284Z,102260.75
2023-02-09T12:42:29.394Z,102252.88
2023-02-09T12:44:59.197Z,102244.19
2023-02-09T12:47:58.508Z,102240.59
2023-02-09T12:50:47.154Z,102239.28
2023-02-09T12:53:47.845Z,102234.53
2023-02-09T12:56:34.067Z,102243.22
2023-02-09T12:59:16.165Z,102240.53
2023-02-09T13:02:24.034Z,102244.97
2023-02-09T13:05:13.970Z,102248.91
2023-02-09T13:07:49.501Z,102250.31
2023-02-09T13:10:26.754Z,102251.56
2023-02-09T13:13:04.126Z,102256.38
2023-02-09T13:15:44.808Z,102249.31
2023-02-09T13:18:21.077Z,102243.56
2023-02-09T13:21:13.739Z,102255.13
2023-02-09T13:23:56.436Z,102250.88
2023-02-09T13:26:26.657Z,102257.41
2023-02-09T13:29:19.940Z,102255.28
2023-02-09T13:31:55.851Z,102248.50
2023-02-09T13:34:33.053Z,102249.03
2023-02-09T13:37:14.523Z,102250.91
2023-02-09T13:39:44.174Z,102264.38
2023-02-09T13:42:20.356Z,102266.00
2023-02-09T13:44:52.635Z,102257.78
2023-02-09T13:47:20.427Z,102269.56
2023-02-09T13:49:59.715Z,102271.50
2023-02-09T13:52:32.846Z,102276.09
2023-02-09T13:55:12.620Z,102272.50
2023-02-09T13:57:43.322Z,102263.81
2023-02-09T14:00:23.448Z,102265.63
2023-02-09T14:02:54.426Z,102265.88
2023-02-09T14:05:31.500Z,102279.66
2023-02-09T14:08:00.066Z,102271.06
2023-02-09T14:10:30.079Z,102272.56
2023-02-09T14:13:01.814Z,102270.06
2023-02-09T14:15:54.228Z,102274.38
2023-02-09T14:18:34.432Z,102277.56
2023-02-09T14:21:04.741Z,102269.59
2023-02-09T14:23:35.217Z,102270.53
2023-02-09T14:26:05.872Z,102270.03
2023-02-09T14:28:35.118Z,102267.97
2023-02-09T14:31:04.782Z,102256.78
2023-02-09T14:33:35.796Z,102253.28
2023-02-09T14:36:04.681Z,102260.19
2023-02-09T14:38:37.744Z,102253.09
2023-02-09T14:41:31.171Z,102265.38
2023-02-09T14:44:04.545Z,102261.84
2023-02-09T14:49:26.582Z,102245.56
2023-02-09T14:52:03.024Z,102245.28
2023-02-09T14:54:33.901Z,102239.53
2023-02-09T14:57:03.751Z,102245.31
2023-02-09T14:59:31.816Z,102247.44
2023-02-09T15:01:59.613Z,102254.28
2023-02-09T15:04:28.618Z,102248.16
2023-02-09T15:07:04.484Z,102262.91
2023-02-09T15:09:36.820Z,102263.50
2023-02-09T15:12:07.636Z,102248.22
2023-02-09T15:14:45.000Z,102250.91
2023-02-09T15:17:16.129Z,102249.31
2023-02-09T15:19:46.056Z,102246.34
2023-02-09T15:22:16.142Z,102243.38
2023-02-09T15:24:44.519Z,102250.22
2023-02-09T15:27:19.749Z,102254.22
2023-02-09T15:29:47.993Z,102257.78
2023-02-09T15:32:17.322Z,102259.59
2023-02-09T15:34:47.261Z,102242.34
2023-02-09T15:37:21.421Z,102253.34
2023-02-09T15:39:50.169Z,102254.41
2023-02-09T15:42:51.498Z,102249.81
2023-02-09T15:45:34.952Z,102251.97
2023-02-09T15:48:02.737Z,102263.03
2023-02-09T15:50:34.307Z,102266.34
2023-02-09T15:53:04.155Z,102271.84
2023-02-09T15:55:32.674Z,102265.00
2023-02-09T15:58:00.629Z,102269.53
2023-02-09T16:00:30.079Z,102270.53
2023-02-09T16:03:00.079Z,102277.31
2023-02-09T16:05:30.017Z,102276.66
2023-02-09T16:08:00.550Z,102282.69
2023-02-09T16:10:30.893Z,102276.56
2023-02-09T16:12:58.695Z,102292.47
2023-02-09T16:15:27.713Z,102285.56
2023-02-09T16:17:55.364Z,102292.47
2023-02-09T16:20:25.804Z,102304.69
2023-02-09T16:22:55.662Z,102305.41
2023-02-09T16:25:26.852Z,102303.31
2023-02-09T16:27:56.044Z,102296.00
2023-02-09T16:30:26.177Z,102299.50
2023-02-09T16:32:54.574Z,102298.16
2023-02-09T16:35:24.133Z,102300.88
2023-02-09T16:37:56.104Z,102299.22
2023-02-09T16:40:27.952Z,102308.56
2023-02-09T16:42:57.747Z,102316.66
2023-02-09T16:45:26.974Z,102305.06
2023-02-09T16:47:59.172Z,102304.41
2023-02-09T16:50:33.072Z,102300.88
2023-02-09T16:53:03.912Z,102306.84
2023-02-09T16:55:35.475Z,102311.75
2023-02-09T16:58:05.281Z,102314.13
2023-02-09T17:00:34.763Z,102314.13
2023-02-09T17:03:09.516Z,102312.38
2023-02-09T17:05:38.049Z,102307.00
2023-02-09T17:08:08.794Z,102309.81
2023-02-09T17:10:37.813Z,102316.84
2023-02-09T17:13:05.597Z,102322.50
2023-02-09T17:15:39.351Z,102318.50
2023-02-09T17:18:10.080Z,102328.78
2023-02-09T17:20:41.830Z,102324.84
2023-02-09T17:23:14.265Z,102323.63
2023-02-09T17:25:44.244Z,102326.66
2023-02-09T17:28:12.445Z,102332.00
2023-02-09T17:30:41.023Z,102335.47
2023-02-09T17:33:18.301Z,102330.84
2023-02-09T17:36:13.968Z,102335.75
2023-02-09T17:38:35.950Z,102344.22
2023-02-09T17:41:07.674Z,102348.50
2023-02-09T17:43:35.427Z,102352.88
2023-02-09T17:46:05.183Z,102357.56
2023-02-09T17:48:32.983Z,102360.25
2023-02-09T17:51:02.670Z,102366.19
2023-02-09T17:53:35.300Z,102361.22
2023-02-09T17:56:03.311Z,102364.63
2023-02-09T17:58:32.405Z,102364.06
2023-02-09T18:01:00.145Z,102371.03
2023-02-09T18:03:28.005Z,102359.75
2023-02-09T18:05:58.411Z,102368.44
2023-02-09T18:08:27.231Z,102363.41
2023-02-09T18:10:56.922Z,102370.91
2023-02-09T18:13:26.958Z,102377.34
2023-02-09T18:15:56.239Z,102380.06
2023-02-09T18:18:24.472Z,102375.53
2023-02-09T18:20:52.447Z,102378.31
2023-02-09T18:23:20.175Z,102383.72
2023-02-09T18:25:49.639Z,102387.03
2023-02-09T18:28:17.653Z,102381.84
2023-02-09T18:30:46.262Z,102377.41
2023-02-09T18:33:16.430Z,102393.63
2023-02-09T18:35:45.725Z,102395.09
2023-02-09T18:38:15.778Z,102388.38
2023-02-09T18:40:43.500Z,102392.00
2023-02-09T18:43:14.532Z,102408.00
2023-02-09T18:45:42.198Z,102402.75
2023-02-09T18:48:11.685Z,102405.59
2023-02-09T18:50:40.804Z,102397.56
2023-02-09T18:53:08.762Z,102392.69
2023-02-09T18:55:36.537Z,102399.88
2023-02-09T18:58:06.175Z,102415.03
2023-02-09T19:00:34.184Z,102422.16
2023-02-09T19:03:02.209Z,102420.56
2023-02-09T19:05:32.069Z,102422.91
2023-02-09T19:08:01.757Z,102427.16
2023-02-09T19:10:32.949Z,102433.59
2023-02-09T19:13:01.887Z,102432.97
2023-02-09T19:15:30.253Z,102432.94
2023-02-09T19:17:57.974Z,102437.91
2023-02-09T19:20:27.568Z,102427.28
2023-02-09T19:22:56.114Z,102426.19
2023-02-09T19:25:26.792Z,102431.22
2023-02-09T19:27:55.160Z,102439.59
2023-02-09T19:30:26.382Z,102441.75
2023-02-09T19:32:55.259Z,102455.16
2023-02-09T19:35:23.331Z,102444.72
2023-02-09T19:37:52.493Z,102450.88
2023-02-09T19:40:28.104Z,102448.44
2023-02-09T19:42:57.533Z,102450.09
2023-02-09T19:45:25.251Z,102459.50
2023-02-09T19:47:52.910Z,102454.91
2023-02-09T19:50:20.783Z,102459.34
2023-02-09T19:52:50.228Z,102448.25
2023-02-09T19:55:18.022Z,102455.19
2023-02-09T19:57:45.740Z,102450.97
2023-02-09T20:00:18.067Z,102448.06
2023-02-09T20:02:46.038Z,102448.38
2023-02-09T20:05:14.058Z,102447.91
2023-02-09T20:07:41.726Z,102453.41
2023-02-09T20:10:10.491Z,102450.44
2023-02-09T20:12:38.208Z,102451.06
2023-02-09T20:15:06.282Z,102453.41
2023-02-09T20:17:35.389Z,102461.47
2023-02-09T20:20:03.017Z,102464.09
2023-02-09T20:22:30.767Z,102474.63
2023-02-09T20:24:58.403Z,102463.47
2023-02-09T20:27:26.091Z,102468.81
2023-02-09T20:29:57.194Z,102472.91
2023-02-09T20:32:24.852Z,102472.91
2023-02-09T20:34:53.798Z,102480.75
2023-02-09T20:37:21.479Z,102479.88
2023-02-09T20:39:49.131Z,102474.16
2023-02-09T20:42:34.902Z,102484.94
2023-02-09T20:45:20.304Z,102483.63
2023-02-09T20:47:48.085Z,102486.72
2023-02-09T20:50:17.850Z,102484.56
2023-02-09T20:52:46.035Z,102494.53
2023-02-09T20:55:14.222Z,102496.06
2023-02-09T20:57:42.466Z,102498.63
2023-02-09T21:00:11.248Z,102507.38
2023-02-09T21:02:39.173Z,102503.88
2023-02-09T21:05:07.278Z,102508.53
2023-02-09T21:07:36.624Z,102498.69
2023-02-09T21:10:04.688Z,102507.41
2023-02-09T21:12:32.372Z,102505.00
2023-02-09T21:15:00.097Z,102502.16
2023-02-09T21:17:27.813Z,102508.38
2023-02-09T21:19:55.541Z,102507.84
2023-02-09T21:22:23.288Z,102510.38
2023-02-09T21:24:52.371Z,102506.75
2023-02-09T21:27:20.488Z,102506.84
2023-02-09T21:29:48.460Z,102510.69
2023-02-09T21:32:16.348Z,102504.44
2023-02-09T21:34:44.199Z,102506.47
2023-02-09T21:37:14.128Z,102507.25
2023-02-09T21:39:42.383Z,102515.22
2023-02-09T21:42:30.286Z,102508.16
2023-02-09T21:44:59.811Z,102502.75
2023-02-09T21:47:28.589Z,102504.16
2023-02-09T21:49:57.271Z,102497.28
2023-02-09T21:52:25.770Z,102501.00
2023-02-09T21:54:54.725Z,102497.44
2023-02-09T21:57:24.149Z,102500.88
2023-02-09T21:59:52.096Z,102502.63
2023-02-09T22:02:21.274Z,102501.13
2023-02-09T22:04:49.712Z,102501.25
2023-02-09T22:07:17.806Z,102509.69
2023-02-09T22:09:45.516Z,102508.72
2023-02-09T22:12:13.301Z,102505.28
2023-02-09T22:14:42.526Z,102515.69
2023-02-09T22:17:10.550Z,102514.66
2023-02-09T22:19:38.976Z,102520.72
2023-02-09T22:22:06.944Z,102516.34
2023-02-09T22:24:34.889Z,102511.19
2023-02-09T22:27:03.485Z,102513.72
2023-02-09T22:29:33.323Z,102517.38
2023-02-09T22:32:02.566Z,102510.81
2023-02-09T22:34:30.315Z,102510.81
2023-02-09T22:36:58.132Z,102512.78
2023-02-09T22:39:25.977Z,102512.25
2023-02-09T22:41:58.058Z,102514.84
2023-02-09T22:44:28.005Z,102518.81
2023-02-09T22:46:55.894Z,102517.22
2023-02-09T22:49:25.102Z,102528.63
2023-02-09T22:51:53.195Z,102532.44
2023-02-09T22:54:21.316Z,102524.00
2023-02-09T22:56:49.124Z,102525.81
2023-02-09T22:59:17.122Z,102537.34
2023-02-09T23:01:45.416Z,102536.63
2023-02-09T23:04:13.300Z,102547.31
2023-02-09T23:06:42.548Z,102543.81
2023-02-09T23:09:10.303Z,102545.44
2023-02-09T23:11:38.144Z,102539.00
2023-02-09T23:14:10.224Z,102535.66
2023-02-09T23:16:39.974Z,102535.47
2023-02-09T23:19:11.029Z,102533.94
2023-02-09T23:21:42.082Z,102540.97
2023-02-09T23:24:12.716Z,102542.78
2023-02-09T23:26:40.879Z,102541.16
2023-02-09T23:29:10.891Z,102538.63
2023-02-09T23:31:39.052Z,102541.16
2023-02-09T23:34:06.750Z,102536.00
2023-02-09T23:36:35.984Z,102536.78
2023-02-09T23:39:07.436Z,102541.97
2023-02-09T23:41:36.756Z,102536.72
2023-02-09T23:44:04.844Z,102539.25
2023-02-09T23:46:32.947Z,102541.59
2023-02-09T23:49:01.599Z,102538.00
2023-02-09T23:51:31.422Z,102548.75
2023-02-09T23:54:01.952Z,102546.41
2023-02-09T23:56:31.821Z,102548.47
2023-02-09T23:59:00.971Z,102551.19
